Time;durP1;ratioP1;P1;durP2;ratioP2;P2;SDS_P1;SDS_P2;PMS_P1;PMS_P2;Temp;Humidity;BMP_temperature;BMP_pressure;BME280_temperature;BME280_humidity;BME280_pressure;Samples;Min_cycle;Max_cycle;Signal;HPM_P1;HPM_P2
2023/08/31 00:02:21;;;;;;;7.18;3.60;;;17.40;99.90;;;;;;5070664;28;20286;-74
2023/08/31 00:04:47;;;;;;;5.80;3.45;;;17.40;99.90;;;;;;5071473;28;20674;-71
2023/08/31 00:07:12;;;;;;;4.30;3.80;;;17.40;99.90;;;;;;5068842;28;20253;-71
2023/08/31 00:09:39;;;;;;;5.00;3.85;;;17.40;99.90;;;;;;5067769;28;20182;-72
2023/08/31 00:12:05;;;;;;;4.35;3.13;;;17.40;99.90;;;;;;5066219;28;20685;-74
2023/08/31 00:14:32;;;;;;;4.82;3.90;;;17.40;99.90;;;;;;5063048;28;20215;-73
2023/08/31 00:16:58;;;;;;;4.18;3.22;;;17.40;99.90;;;;;;5064816;28;20643;-74
2023/08/31 00:19:24;;;;;;;3.42;3.13;;;17.40;99.90;;;;;;5060735;28;20204;-73
2023/08/31 00:21:50;;;;;;;5.10;2.92;;;17.30;99.90;;;;;;5062662;28;20360;-72
2023/08/31 00:24:15;;;;;;;4.38;3.25;;;17.30;99.90;;;;;;5073521;28;20675;-74
2023/08/31 00:26:42;;;;;;;4.32;3.10;;;17.30;99.90;;;;;;5077913;28;20246;-71
2023/08/31 00:29:10;;;;;;;5.05;3.55;;;17.20;99.90;;;;;;5077510;28;20633;-73
2023/08/31 00:31:36;;;;;;;4.22;3.83;;;17.30;99.90;;;;;;5056183;28;20653;-73
2023/08/31 00:34:03;;;;;;;6.65;4.50;;;17.30;99.90;;;;;;5075914;28;20794;-73
2023/08/31 00:36:30;;;;;;;9.68;7.32;;;17.20;99.90;;;;;;5066089;28;20210;-73
2023/08/31 00:38:55;;;;;;;4.07;3.15;;;17.20;99.90;;;;;;5070416;28;20218;-73
2023/08/31 00:41:22;;;;;;;4.72;3.40;;;17.20;99.90;;;;;;5067476;28;20202;-73
2023/08/31 00:43:48;;;;;;;3.13;2.83;;;17.20;99.90;;;;;;5069146;28;20212;-73
2023/08/31 00:46:14;;;;;;;5.05;3.38;;;17.20;99.90;;;;;;5049774;28;20232;-69
2023/08/31 00:48:41;;;;;;;4.43;3.20;;;17.20;99.90;;;;;;5065435;28;20298;-73
2023/08/31 00:51:07;;;;;;;6.32;3.17;;;17.20;99.90;;;;;;5065031;28;20588;-73
2023/08/31 00:53:34;;;;;;;2.63;2.42;;;17.20;99.90;;;;;;5060266;28;20360;-73
2023/08/31 00:56:00;;;;;;;2.95;2.65;;;17.20;99.90;;;;;;5069660;28;20226;-74
2023/08/31 00:58:26;;;;;;;6.03;3.00;;;17.10;99.90;;;;;;5041187;28;20242;-71
2023/08/31 01:00:57;;;;;;;3.58;3.28;;;17.20;99.90;;;;;;5071885;28;20230;-73
2023/08/31 01:03:29;;;;;;;3.67;3.35;;;17.10;99.90;;;;;;5076840;28;20206;-73
2023/08/31 01:06:15;;;;;;;3.72;3.30;;;17.10;99.90;;;;;;5081313;28;20757;-71
2023/08/31 01:09:04;;;;;;;5.22;4.00;;;17.00;99.90;;;;;;5076808;28;20218;-73
2023/08/31 01:12:06;;;;;;;3.78;3.45;;;16.90;99.90;;;;;;5074642;28;20227;-73
2023/08/31 01:14:44;;;;;;;4.50;4.10;;;16.90;99.90;;;;;;5055812;28;20202;-73
2023/08/31 01:17:13;;;;;;;4.18;3.78;;;16.90;99.90;;;;;;5072887;28;20825;-73
2023/08/31 01:19:51;;;;;;;5.07;4.47;;;16.90;99.90;;;;;;5051326;28;20625;-72
2023/08/31 01:22:57;;;;;;;5.40;4.15;;;16.90;99.90;;;;;;5049397;28;20666;-73
2023/08/31 01:25:24;;;;;;;5.07;4.53;;;16.80;99.90;;;;;;5060451;28;20252;-73
2023/08/31 01:27:51;;;;;;;5.65;4.10;;;16.80;99.90;;;;;;5068885;28;20206;-71
2023/08/31 01:30:17;;;;;;;3.90;3.55;;;16.70;99.90;;;;;;5067398;28;20419;-73
2023/08/31 01:32:46;;;;;;;3.70;3.38;;;16.70;99.90;;;;;;5064486;28;20214;-72
2023/08/31 01:35:16;;;;;;;3.47;3.15;;;16.60;99.90;;;;;;5064917;28;20220;-73
2023/08/31 01:37:50;;;;;;;5.22;3.58;;;16.60;99.90;;;;;;5070507;28;20653;-72
2023/08/31 01:40:26;;;;;;;3.50;3.20;;;16.60;99.90;;;;;;5081826;28;20178;-73
2023/08/31 01:42:52;;;;;;;3.33;3.03;;;16.60;99.90;;;;;;5062412;28;20178;-72
2023/08/31 01:45:20;;;;;;;4.88;3.58;;;16.50;99.90;;;;;;5078423;28;20214;-72
2023/08/31 01:47:47;;;;;;;2.97;2.50;;;16.50;99.90;;;;;;5075924;28;20218;-72
2023/08/31 01:50:12;;;;;;;3.05;2.75;;;16.50;99.90;;;;;;5076680;28;20203;-73
2023/08/31 01:52:38;;;;;;;5.82;4.40;;;16.60;99.90;;;;;;5069603;28;20206;-72
2023/08/31 01:55:05;;;;;;;3.90;3.50;;;16.60;99.90;;;;;;5074118;28;20558;-72
2023/08/31 01:57:31;;;;;;;4.78;3.90;;;16.60;99.90;;;;;;5070805;28;20218;-73
2023/08/31 01:59:57;;;;;;;2.45;2.22;;;16.50;99.90;;;;;;5052927;28;20242;-73
2023/08/31 02:02:23;;;;;;;2.72;2.53;;;16.50;99.90;;;;;;5068691;28;20227;-72
2023/08/31 02:04:50;;;;;;;3.10;2.30;;;16.40;99.90;;;;;;5066868;28;20238;-70
2023/08/31 02:07:16;;;;;;;8.00;4.80;;;16.40;99.90;;;;;;5048696;28;20626;-72
2023/08/31 02:09:42;;;;;;;2.40;2.20;;;16.30;99.90;;;;;;5062586;28;20179;-71
2023/08/31 02:12:09;;;;;;;2.55;2.20;;;16.30;99.90;;;;;;5064966;28;20313;-72
2023/08/31 02:14:35;;;;;;;2.60;2.13;;;16.10;99.90;;;;;;5072365;28;20708;-73
2023/08/31 02:17:00;;;;;;;2.65;2.10;;;16.10;99.90;;;;;;5052354;28;20219;-73
2023/08/31 02:19:26;;;;;;;2.20;2.00;;;16.10;99.90;;;;;;5070772;28;20693;-73
2023/08/31 02:21:52;;;;;;;1.98;1.85;;;16.10;99.90;;;;;;5069980;28;20171;-72
2023/08/31 02:24:17;;;;;;;3.38;2.03;;;16.00;99.90;;;;;;5069607;28;20297;-73
2023/08/31 02:26:43;;;;;;;2.47;2.03;;;16.00;99.90;;;;;;5072990;28;20307;-72
2023/08/31 02:29:09;;;;;;;3.28;2.03;;;15.90;99.90;;;;;;5068291;28;20211;-73
2023/08/31 02:31:34;;;;;;;3.80;2.22;;;15.90;99.90;;;;;;5069401;28;20206;-73
2023/08/31 02:34:00;;;;;;;2.45;2.00;;;15.90;99.90;;;;;;5066636;28;20259;-73
2023/08/31 02:36:26;;;;;;;2.53;1.98;;;15.90;99.90;;;;;;5066347;28;20211;-73
2023/08/31 02:38:52;;;;;;;3.53;2.15;;;15.90;99.90;;;;;;5063441;28;20218;-72
2023/08/31 02:41:18;;;;;;;2.50;1.83;;;15.80;99.90;;;;;;5070101;28;20203;-74
2023/08/31 02:43:44;;;;;;;3.08;2.38;;;15.80;99.90;;;;;;5061440;28;20211;-71
2023/08/31 02:46:10;;;;;;;2.72;2.25;;;15.90;99.90;;;;;;5064232;28;20178;-73
2023/08/31 02:48:36;;;;;;;3.88;2.42;;;15.80;99.90;;;;;;5061677;28;20654;-73
2023/08/31 02:51:02;;;;;;;2.28;2.08;;;15.80;99.90;;;;;;5066473;28;20207;-74
2023/08/31 02:53:30;;;;;;;2.20;2.00;;;15.80;99.90;;;;;;5074397;28;20293;-73
2023/08/31 02:55:56;;;;;;;4.68;2.03;;;15.80;99.90;;;;;;5053165;28;20259;-71
2023/08/31 02:58:22;;;;;;;3.05;2.05;;;15.80;99.90;;;;;;5071119;28;20202;-74
2023/08/31 03:00:48;;;;;;;2.97;1.95;;;15.80;99.90;;;;;;5068335;28;20190;-72
2023/08/31 03:03:16;;;;;;;3.08;2.22;;;15.80;99.90;;;;;;5068332;28;20203;-72
2023/08/31 03:05:42;;;;;;;1.73;1.63;;;15.80;99.90;;;;;;5068966;28;20207;-74
2023/08/31 03:08:09;;;;;;;2.90;2.03;;;15.80;99.90;;;;;;5066727;28;20206;-73
2023/08/31 03:10:35;;;;;;;1.80;1.65;;;15.80;99.90;;;;;;5050888;28;20207;-72
2023/08/31 03:13:01;;;;;;;3.08;1.95;;;15.70;99.90;;;;;;5064953;28;20172;-70
2023/08/31 03:15:26;;;;;;;3.63;2.35;;;15.80;99.90;;;;;;5065081;28;20298;-71
2023/08/31 03:17:52;;;;;;;2.83;2.08;;;15.70;99.90;;;;;;5061862;28;20570;-73
2023/08/31 03:20:18;;;;;;;2.72;1.70;;;15.70;99.90;;;;;;5065106;28;20214;-72
2023/08/31 03:22:43;;;;;;;1.80;1.70;;;15.60;99.90;;;;;;5042665;28;20769;-73
2023/08/31 03:25:09;;;;;;;2.17;1.98;;;15.60;99.90;;;;;;5044518;28;20232;-73
2023/08/31 03:27:35;;;;;;;3.45;2.33;;;15.60;99.90;;;;;;5063081;28;21143;-73
2023/08/31 03:30:03;;;;;;;2.90;2.00;;;15.60;99.90;;;;;;5069510;28;20207;-74
2023/08/31 03:32:28;;;;;;;2.85;2.00;;;15.70;99.90;;;;;;5069765;28;20211;-73
2023/08/31 03:34:54;;;;;;;2.80;2.33;;;15.70;99.90;;;;;;5067877;28;20202;-72
2023/08/31 03:37:21;;;;;;;2.50;2.10;;;15.70;99.90;;;;;;5068269;28;20207;-73
2023/08/31 03:39:48;;;;;;;2.40;2.20;;;15.80;99.90;;;;;;5068300;28;20170;-72
2023/08/31 03:42:13;;;;;;;3.10;2.15;;;15.70;99.90;;;;;;5060901;28;20207;-70
2023/08/31 03:44:39;;;;;;;3.67;2.35;;;15.80;99.90;;;;;;5065742;28;20199;-72
2023/08/31 03:47:05;;;;;;;3.45;2.20;;;15.70;99.90;;;;;;5066294;28;20595;-73
2023/08/31 03:49:31;;;;;;;2.83;2.53;;;15.70;99.90;;;;;;5065444;28;20214;-72
2023/08/31 03:51:58;;;;;;;2.83;2.40;;;15.80;99.90;;;;;;5062995;28;20179;-73
2023/08/31 03:54:23;;;;;;;2.90;2.50;;;15.70;99.90;;;;;;5064105;28;20199;-71
2023/08/31 03:56:49;;;;;;;3.33;3.00;;;15.60;99.90;;;;;;5060851;28;20222;-73
2023/08/31 03:59:15;;;;;;;3.92;3.00;;;15.70;99.90;;;;;;5063944;28;20213;-73
2023/08/31 04:01:40;;;;;;;3.50;3.05;;;15.60;99.90;;;;;;5060315;28;20261;-73
2023/08/31 04:04:06;;;;;;;4.18;2.92;;;15.70;99.90;;;;;;5060423;28;20186;-73
2023/08/31 04:06:31;;;;;;;4.32;2.88;;;15.60;99.90;;;;;;5070056;28;20707;-74
2023/08/31 04:08:57;;;;;;;4.15;3.60;;;15.60;99.90;;;;;;5068864;28;20209;-73
2023/08/31 04:11:24;;;;;;;4.05;3.20;;;15.60;99.90;;;;;;5072244;28;20298;-73
2023/08/31 04:13:50;;;;;;;5.38;4.25;;;15.50;99.90;;;;;;5066816;28;20215;-73
2023/08/31 04:16:15;;;;;;;3.55;3.08;;;15.50;99.90;;;;;;5048764;28;20604;-73
2023/08/31 04:18:41;;;;;;;4.68;3.13;;;15.40;99.90;;;;;;5065371;28;20268;-73
2023/08/31 04:21:08;;;;;;;4.57;4.00;;;15.50;99.90;;;;;;5071474;28;20215;-73
2023/08/31 04:23:34;;;;;;;5.70;3.78;;;15.50;99.90;;;;;;5067502;28;20282;-73
2023/08/31 04:26:00;;;;;;;5.07;3.90;;;15.60;99.90;;;;;;5047690;28;20291;-73
2023/08/31 04:28:25;;;;;;;5.80;4.15;;;15.60;99.90;;;;;;5065768;28;20215;-73
2023/08/31 04:30:52;;;;;;;6.05;4.50;;;15.60;99.90;;;;;;5064057;28;20729;-72
2023/08/31 04:33:18;;;;;;;5.10;4.57;;;15.60;99.90;;;;;;5065361;28;20233;-73
2023/08/31 04:35:43;;;;;;;5.80;4.05;;;15.60;99.90;;;;;;5061431;28;20210;-73
2023/08/31 04:38:09;;;;;;;4.82;4.10;;;15.50;99.90;;;;;;5043134;28;20215;-73
2023/08/31 04:40:36;;;;;;;6.30;4.15;;;15.60;99.90;;;;;;5068844;28;20217;-74
2023/08/31 04:43:03;;;;;;;5.53;4.50;;;15.60;99.90;;;;;;5063853;28;20262;-73
2023/08/31 04:45:28;;;;;;;5.55;4.60;;;15.60;99.90;;;;;;5082716;28;20590;-73
2023/08/31 04:47:54;;;;;;;5.43;4.85;;;15.60;99.90;;;;;;5078107;28;20305;-70
2023/08/31 04:50:19;;;;;;;5.53;4.43;;;15.60;99.90;;;;;;5080684;28;20198;-72
2023/08/31 04:52:45;;;;;;;6.53;4.57;;;15.50;99.90;;;;;;5076541;28;20207;-70
2023/08/31 04:55:13;;;;;;;6.35;4.38;;;15.50;99.90;;;;;;5059057;28;20199;-71
2023/08/31 04:57:39;;;;;;;6.50;4.95;;;15.50;99.90;;;;;;5072661;28;20215;-73
2023/08/31 05:00:07;;;;;;;5.22;4.72;;;15.50;99.90;;;;;;5072361;28;20286;-71
2023/08/31 05:02:32;;;;;;;7.10;5.25;;;15.50;99.90;;;;;;5085647;28;20199;-71
2023/08/31 05:04:58;;;;;;;7.18;4.85;;;15.60;99.90;;;;;;5077880;28;20251;-71
2023/08/31 05:07:23;;;;;;;6.22;4.88;;;15.60;99.90;;;;;;5070599;28;20270;-72
2023/08/31 05:09:50;;;;;;;5.63;4.97;;;15.60;99.90;;;;;;5068257;28;20186;-71
2023/08/31 05:12:17;;;;;;;6.63;5.15;;;15.70;99.90;;;;;;5068063;28;20203;-74
2023/08/31 05:14:43;;;;;;;6.07;5.40;;;15.60;99.90;;;;;;5064166;28;20214;-73
2023/08/31 05:17:08;;;;;;;7.18;5.90;;;15.70;99.90;;;;;;5064376;28;20753;-74
2023/08/31 05:19:34;;;;;;;7.88;5.32;;;15.70;99.90;;;;;;5083107;28;20267;-73
2023/08/31 05:22:00;;;;;;;7.20;5.53;;;15.80;99.90;;;;;;5079600;28;20178;-73
2023/08/31 05:24:26;;;;;;;5.82;5.22;;;15.90;99.90;;;;;;5085991;28;20227;-71
2023/08/31 05:26:51;;;;;;;5.95;5.30;;;15.90;99.90;;;;;;5076779;28;20211;-72
2023/08/31 05:29:17;;;;;;;5.65;5.05;;;15.90;99.90;;;;;;5056586;28;20721;-73
2023/08/31 05:31:43;;;;;;;7.50;5.28;;;15.90;99.90;;;;;;5060216;28;20837;-72
2023/08/31 05:34:15;;;;;;;7.18;5.25;;;15.90;99.90;;;;;;5072849;28;20191;-72
2023/08/31 05:36:41;;;;;;;6.22;5.22;;;15.90;99.90;;;;;;5070894;28;20236;-73
2023/08/31 05:39:07;;;;;;;8.82;5.65;;;15.80;99.90;;;;;;5069014;28;20294;-73
2023/08/31 05:41:34;;;;;;;6.25;5.55;;;15.70;99.90;;;;;;5068456;28;20210;-73
2023/08/31 05:43:59;;;;;;;8.60;6.38;;;15.70;99.90;;;;;;5066000;28;20230;-73
2023/08/31 05:46:25;;;;;;;7.35;5.22;;;15.80;99.90;;;;;;5068556;28;20275;-73
2023/08/31 05:48:52;;;;;;;7.68;5.47;;;15.80;99.90;;;;;;5065296;28;20580;-72
2023/08/31 05:51:17;;;;;;;8.23;5.95;;;15.80;99.90;;;;;;5062861;28;20227;-73
2023/08/31 05:53:43;;;;;;;7.22;5.70;;;15.80;99.90;;;;;;5070292;28;20294;-73
2023/08/31 05:56:09;;;;;;;7.60;6.07;;;15.90;99.90;;;;;;5075516;28;20711;-73
2023/08/31 05:58:35;;;;;;;9.57;6.00;;;15.90;99.90;;;;;;5063058;28;20214;-71
2023/08/31 06:01:02;;;;;;;8.77;5.75;;;15.80;99.90;;;;;;5070967;28;20186;-74
2023/08/31 06:03:29;;;;;;;9.63;6.05;;;15.90;99.90;;;;;;5073556;28;20557;-73
2023/08/31 06:05:55;;;;;;;7.53;6.07;;;15.90;99.90;;;;;;5070133;28;20214;-73
2023/08/31 06:08:21;;;;;;;9.20;6.25;;;16.00;99.90;;;;;;5072853;28;20644;-74
2023/08/31 06:10:46;;;;;;;11.63;6.70;;;16.10;99.90;;;;;;5071343;28;20203;-71
2023/08/31 06:13:12;;;;;;;8.63;5.80;;;16.10;99.90;;;;;;5069580;28;20191;-73
2023/08/31 06:15:38;;;;;;;7.32;5.80;;;16.10;99.90;;;;;;5073019;28;20240;-73
2023/08/31 06:18:04;;;;;;;9.35;6.38;;;16.30;99.90;;;;;;5063060;28;20717;-71
2023/08/31 06:20:30;;;;;;;8.25;5.93;;;16.30;99.90;;;;;;5069762;28;20210;-73
2023/08/31 06:22:56;;;;;;;7.05;6.05;;;16.40;99.90;;;;;;5067044;28;20210;-73
2023/08/31 06:25:22;;;;;;;8.52;5.85;;;16.50;99.90;;;;;;5067854;28;20262;-72
2023/08/31 06:27:48;;;;;;;6.82;5.97;;;16.50;99.90;;;;;;5049469;28;20207;-72
2023/08/31 06:30:16;;;;;;;6.63;5.93;;;16.50;99.90;;;;;;5063871;28;20301;-69
2023/08/31 06:32:49;;;;;;;7.28;6.07;;;16.60;99.90;;;;;;5076720;28;20339;-72
2023/08/31 06:35:15;;;;;;;7.40;5.97;;;16.60;99.90;;;;;;5070480;28;20214;-72
2023/08/31 06:37:42;;;;;;;8.00;6.47;;;16.60;99.90;;;;;;5074602;28;20223;-72
2023/08/31 06:40:09;;;;;;;8.70;6.05;;;16.70;99.90;;;;;;5073975;28;20278;-72
2023/08/31 06:42:39;;;;;;;7.28;5.90;;;16.80;99.90;;;;;;5076725;28;20668;-74
2023/08/31 06:45:05;;;;;;;7.95;6.22;;;17.00;99.90;;;;;;5071226;28;20207;-73
2023/08/31 06:47:31;;;;;;;6.82;6.13;;;17.10;99.90;;;;;;5074547;28;20339;-72
2023/08/31 06:50:00;;;;;;;9.18;6.20;;;17.10;99.90;;;;;;5070004;28;20202;-73
2023/08/31 06:52:30;;;;;;;6.22;5.53;;;17.20;99.90;;;;;;5071571;28;20306;-73
2023/08/31 06:54:56;;;;;;;8.73;6.60;;;17.20;99.90;;;;;;5068840;28;20285;-73
2023/08/31 06:57:26;;;;;;;7.53;6.00;;;17.20;99.90;;;;;;5052901;28;20212;-73
2023/08/31 06:59:53;;;;;;;7.47;6.00;;;17.20;99.90;;;;;;5067283;28;20249;-71
2023/08/31 07:02:24;;;;;;;6.05;5.43;;;16.90;99.90;;;;;;5063490;28;20222;-73
2023/08/31 07:04:52;;;;;;;13.77;6.50;;;16.90;99.90;;;;;;5066270;28;20211;-72
2023/08/31 07:07:17;;;;;;;8.20;5.43;;;16.90;99.90;;;;;;5049610;28;20279;-70
2023/08/31 07:09:44;;;;;;;6.88;4.95;;;16.80;99.90;;;;;;5079326;28;20178;-73
2023/08/31 07:12:10;;;;;;;6.85;5.43;;;16.80;99.90;;;;;;5074712;28;20284;-70
2023/08/31 07:14:35;;;;;;;7.93;5.65;;;16.90;99.90;;;;;;5076150;28;20209;-71
2023/08/31 07:17:01;;;;;;;8.73;5.90;;;17.00;99.90;;;;;;5073057;28;20298;-73
2023/08/31 07:19:27;;;;;;;9.20;5.45;;;16.80;99.90;;;;;;5074059;28;20269;-74
2023/08/31 07:21:54;;;;;;;8.63;4.70;;;16.90;99.90;;;;;;5073072;28;20563;-72
2023/08/31 07:24:21;;;;;;;7.63;4.95;;;17.00;99.90;;;;;;5066706;28;20211;-72
2023/08/31 07:26:47;;;;;;;6.47;4.75;;;17.10;99.90;;;;;;5068518;28;20221;-72
2023/08/31 07:29:13;;;;;;;9.35;4.80;;;17.20;99.90;;;;;;5067352;28;20223;-71
2023/08/31 07:31:38;;;;;;;8.57;4.60;;;17.20;99.90;;;;;;5056667;28;20219;-73
2023/08/31 07:34:04;;;;;;;7.60;4.53;;;17.20;99.90;;;;;;5064576;28;20190;-72
2023/08/31 07:36:30;;;;;;;7.65;4.80;;;17.40;99.90;;;;;;5046094;28;20531;-72
2023/08/31 07:38:56;;;;;;;8.88;4.90;;;17.30;99.90;;;;;;5068541;28;20222;-73
2023/08/31 07:41:22;;;;;;;7.93;5.22;;;17.30;99.90;;;;;;5067799;28;20214;-72
2023/08/31 07:43:49;;;;;;;5.22;4.30;;;17.20;99.90;;;;;;5066305;28;20221;-70
2023/08/31 07:46:15;;;;;;;5.07;4.25;;;17.10;99.90;;;;;;5069608;28;20171;-69
2023/08/31 07:48:41;;;;;;;5.88;4.68;;;17.10;99.90;;;;;;5072582;28;20206;-71
2023/08/31 07:51:06;;;;;;;8.32;4.35;;;17.10;99.90;;;;;;5071839;28;20222;-70
2023/08/31 07:53:32;;;;;;;8.18;4.45;;;17.10;99.90;;;;;;5051912;28;20207;-70
2023/08/31 07:55:58;;;;;;;5.95;3.53;;;17.60;99.90;;;;;;5069625;28;20283;-70
2023/08/31 07:58:23;;;;;;;10.20;3.17;;;17.80;99.90;;;;;;5071218;28;20219;-71
2023/08/31 08:00:52;;;;;;;5.57;3.05;;;18.90;99.90;;;;;;5069705;28;20213;-69
2023/08/31 08:03:17;;;;;;;4.03;2.42;;;20.10;99.90;;;;;;5071080;28;20215;-70
2023/08/31 08:05:43;;;;;;;5.72;2.25;;;21.50;99.90;;;;;;5065509;28;20213;-72
2023/08/31 08:08:09;;;;;;;4.22;2.60;;;23.10;99.90;;;;;;5068776;28;20218;-71
2023/08/31 08:10:35;;;;;;;6.35;2.33;;;23.50;99.90;;;;;;5071496;28;20279;-72
2023/08/31 08:13:01;;;;;;;5.82;2.38;;;23.30;99.90;;;;;;5071136;28;20179;-69
2023/08/31 08:15:26;;;;;;;3.85;2.15;;;23.30;99.90;;;;;;5067766;28;20312;-70
2023/08/31 08:17:53;;;;;;;5.72;2.42;;;22.70;99.90;;;;;;5041246;28;20227;-70
2023/08/31 08:20:19;;;;;;;6.68;2.47;;;22.00;99.90;;;;;;5055707;28;20208;-70
2023/08/31 08:22:45;;;;;;;6.47;2.60;;;21.70;99.90;;;;;;5053619;28;20202;-70
2023/08/31 08:25:11;;;;;;;8.90;2.33;;;21.20;99.90;;;;;;5052451;28;20176;-71
2023/08/31 08:27:36;;;;;;;5.45;2.33;;;21.30;99.90;;;;;;5054698;28;20589;-70
2023/08/31 08:30:03;;;;;;;6.35;1.98;;;21.90;99.90;;;;;;5054179;28;20592;-72
2023/08/31 08:32:29;;;;;;;4.45;2.25;;;22.60;99.90;;;;;;5051427;28;20215;-71
2023/08/31 08:34:54;;;;;;;5.05;2.10;;;22.50;99.90;;;;;;5053107;28;20235;-71
2023/08/31 08:37:20;;;;;;;3.75;1.63;;;22.40;99.90;;;;;;5051757;28;20878;-71
2023/08/31 08:39:50;;;;;;;2.15;1.42;;;22.60;99.90;;;;;;5053241;28;20179;-70
2023/08/31 08:42:17;;;;;;;2.97;1.40;;;23.30;99.90;;;;;;5039712;28;20216;-70
2023/08/31 08:44:44;;;;;;;3.47;1.83;;;22.90;99.90;;;;;;5035449;28;21234;-70
2023/08/31 08:47:11;;;;;;;4.30;2.35;;;22.70;99.90;;;;;;5038112;28;20345;-69
2023/08/31 08:49:37;;;;;;;2.85;1.75;;;22.30;99.90;;;;;;5056628;28;20210;-70
2023/08/31 08:52:03;;;;;;;4.57;2.00;;;21.10;99.90;;;;;;5037311;28;20206;-70
2023/08/31 08:54:29;;;;;;;4.18;2.15;;;20.40;99.90;;;;;;5051121;28;20227;-69
2023/08/31 08:56:54;;;;;;;4.28;2.10;;;19.90;99.90;;;;;;5053686;28;20223;-70
2023/08/31 08:59:20;;;;;;;3.85;1.75;;;20.90;99.90;;;;;;5052115;28;20762;-70
2023/08/31 09:01:46;;;;;;;5.47;1.92;;;21.80;99.90;;;;;;5054036;28;20689;-70
2023/08/31 09:04:12;;;;;;;2.92;1.50;;;22.40;99.90;;;;;;5051311;28;20183;-70
2023/08/31 09:06:39;;;;;;;3.50;1.40;;;22.70;99.90;;;;;;5052907;28;20179;-69
2023/08/31 09:09:04;;;;;;;4.20;1.88;;;22.70;99.90;;;;;;5034734;28;20223;-70
2023/08/31 09:11:30;;;;;;;3.78;2.17;;;22.60;99.90;;;;;;5052225;28;20199;-70
2023/08/31 09:13:57;;;;;;;5.47;1.45;;;22.70;99.90;;;;;;5051547;28;22079;-70
2023/08/31 09:16:24;;;;;;;2.25;1.50;;;22.50;99.90;;;;;;5052450;28;20268;-70
2023/08/31 09:18:49;;;;;;;5.22;1.50;;;22.00;99.90;;;;;;5053093;28;21201;-70
2023/08/31 09:21:15;;;;;;;3.97;2.30;;;21.80;99.90;;;;;;5054146;28;20308;-70
2023/08/31 09:23:41;;;;;;;3.20;1.67;;;21.40;99.90;;;;;;5054106;28;20202;-72
2023/08/31 09:26:07;;;;;;;3.00;1.90;;;21.00;99.90;;;;;;5056985;28;20292;-71
2023/08/31 09:28:32;;;;;;;2.90;1.55;;;20.50;99.90;;;;;;5060435;28;20345;-71
2023/08/31 09:31:08;;;;;;;6.53;3.33;;;20.10;99.90;;;;;;5055488;28;20172;-72
2023/08/31 09:33:36;;;;;;;3.65;2.28;;;19.90;99.90;;;;;;5038604;28;20211;-73
2023/08/31 09:36:03;;;;;;;4.63;2.20;;;19.60;99.90;;;;;;5040776;28;20204;-71
2023/08/31 09:38:29;;;;;;;3.30;1.77;;;20.20;99.90;;;;;;5057104;28;20306;-71
2023/08/31 09:41:07;;;;;;;3.50;1.98;;;21.10;99.90;;;;;;5053733;28;20365;-70
2023/08/31 09:43:32;;;;;;;2.42;1.50;;;21.60;99.90;;;;;;5036688;28;20215;-69
2023/08/31 09:45:59;;;;;;;3.83;1.83;;;22.00;99.90;;;;;;5038541;28;20187;-72
2023/08/31 09:48:26;;;;;;;6.65;1.40;;;22.30;99.90;;;;;;5040106;28;20729;-71
2023/08/31 09:50:54;;;;;;;4.45;1.90;;;22.60;99.90;;;;;;5042287;28;20207;-70
2023/08/31 09:53:20;;;;;;;4.10;2.00;;;22.90;99.90;;;;;;5058838;28;20203;-71
2023/08/31 09:55:48;;;;;;;2.80;1.83;;;22.80;99.90;;;;;;5065198;28;20221;-71
2023/08/31 09:58:19;;;;;;;3.30;1.55;;;22.60;99.90;;;;;;5057857;28;20204;-71
2023/08/31 10:00:45;;;;;;;3.92;1.50;;;22.20;99.90;;;;;;5043535;28;20191;-72
2023/08/31 10:03:15;;;;;;;2.65;1.50;;;22.30;99.90;;;;;;5039709;28;20218;-72
2023/08/31 10:05:45;;;;;;;3.40;1.30;;;21.90;99.90;;;;;;5058667;28;20229;-72
2023/08/31 10:08:12;;;;;;;2.55;1.60;;;21.80;99.90;;;;;;5056536;28;20296;-70
2023/08/31 10:10:38;;;;;;;3.80;1.90;;;21.50;99.90;;;;;;5062919;28;20253;-72
2023/08/31 10:13:08;;;;;;;5.22;2.03;;;21.70;99.90;;;;;;5045185;28;20183;-72
2023/08/31 10:15:35;;;;;;;5.40;2.15;;;22.20;99.90;;;;;;5062414;28;20692;-72
2023/08/31 10:18:06;;;;;;;9.48;5.15;;;22.50;99.90;;;;;;5063410;28;20221;-70
2023/08/31 10:20:33;;;;;;;9.00;3.88;;;22.30;99.90;;;;;;5049225;28;20199;-72
2023/08/31 10:23:03;;;;;;;2.72;1.83;;;22.10;99.90;;;;;;5064881;28;20209;-69
2023/08/31 10:25:47;;;;;;;4.88;2.25;;;21.90;99.90;;;;;;5059772;28;20287;-70
2023/08/31 10:28:20;;;;;;;3.42;1.55;;;21.50;99.90;;;;;;5063323;28;20230;-71
2023/08/31 10:31:06;;;;;;;3.63;1.10;;;20.70;99.90;;;;;;5062217;28;20745;-72
2023/08/31 10:33:43;;;;;;;3.22;1.23;;;19.80;99.90;;;;;;5046828;28;20220;-70
2023/08/31 10:36:19;;;;;;;2.88;1.15;;;18.90;99.90;;;;;;5048789;28;20226;-71
2023/08/31 10:39:00;;;;;;;5.32;1.50;;;18.20;99.90;;;;;;5058188;28;20219;-72
2023/08/31 10:41:33;;;;;;;5.97;2.10;;;18.00;99.90;;;;;;5066199;28;20273;-71
2023/08/31 10:43:59;;;;;;;4.00;1.88;;;17.80;99.90;;;;;;5045846;28;20211;-71
2023/08/31 10:46:32;;;;;;;2.40;1.52;;;17.90;99.90;;;;;;5056727;28;20211;-72
2023/08/31 10:49:14;;;;;;;4.72;1.55;;;18.00;99.90;;;;;;5066087;28;20622;-73
2023/08/31 10:51:41;;;;;;;3.17;1.70;;;18.00;99.90;;;;;;5059422;28;20200;-71
2023/08/31 10:54:15;;;;;;;6.20;1.85;;;18.10;99.90;;;;;;5059971;28;20247;-71
2023/08/31 10:57:08;;;;;;;3.80;2.13;;;18.20;99.90;;;;;;5063397;28;20217;-70
2023/08/31 10:59:52;;;;;;;2.83;1.33;;;18.20;99.90;;;;;;5060183;28;20235;-71
2023/08/31 11:02:37;;;;;;;5.10;2.30;;;18.30;99.90;;;;;;5062578;28;20207;-71
2023/08/31 11:05:06;;;;;;;4.72;1.85;;;18.30;99.90;;;;;;5057947;28;20205;-71
2023/08/31 11:07:34;;;;;;;6.40;2.10;;;18.50;99.90;;;;;;5057381;28;20207;-71
2023/08/31 11:10:13;;;;;;;3.60;1.92;;;18.50;99.90;;;;;;5061870;28;20212;-71
2023/08/31 11:12:44;;;;;;;3.45;1.90;;;19.00;99.90;;;;;;5045055;28;20239;-71
2023/08/31 11:15:15;;;;;;;6.65;2.65;;;19.60;99.90;;;;;;5057106;28;20207;-71
2023/08/31 11:17:42;;;;;;;3.63;1.60;;;20.10;99.90;;;;;;5056751;28;20222;-71
2023/08/31 11:20:16;;;;;;;5.80;2.00;;;20.60;99.90;;;;;;5056234;28;20590;-71
2023/08/31 11:22:43;;;;;;;2.83;1.67;;;20.80;99.90;;;;;;5055438;28;20203;-73
2023/08/31 11:25:12;;;;;;;2.03;1.45;;;21.10;99.90;;;;;;5056959;28;20262;-74
2023/08/31 11:27:38;;;;;;;4.05;1.77;;;21.50;99.90;;;;;;5056941;28;20207;-70
2023/08/31 11:30:14;;;;;;;3.42;1.80;;;21.40;99.90;;;;;;5056478;28;20286;-72
2023/08/31 11:32:51;;;;;;;4.10;2.00;;;21.40;99.90;;;;;;5058086;28;20222;-78
2023/08/31 11:35:17;;;;;;;4.38;1.75;;;21.20;99.90;;;;;;5068306;28;20229;-80
2023/08/31 11:37:44;;;;;;;6.38;1.98;;;20.90;99.90;;;;;;5047707;28;20800;-79
2023/08/31 11:40:10;;;;;;;5.38;2.30;;;20.40;99.90;;;;;;5052473;28;20187;-77
2023/08/31 11:42:37;;;;;;;2.15;1.35;;;20.30;99.90;;;;;;5068675;28;20178;-79
2023/08/31 11:45:05;;;;;;;4.65;2.08;;;20.00;99.90;;;;;;5063995;28;20211;-79
2023/08/31 11:47:32;;;;;;;4.07;2.30;;;19.60;99.90;;;;;;5061879;28;20221;-80
2023/08/31 11:49:58;;;;;;;2.45;1.58;;;19.50;99.90;;;;;;5045016;28;20222;-77
2023/08/31 11:52:24;;;;;;;3.03;1.85;;;19.30;99.90;;;;;;5048657;28;20218;-77
2023/08/31 11:54:53;;;;;;;2.42;1.98;;;19.20;99.90;;;;;;5063481;28;20257;-76
2023/08/31 11:57:20;;;;;;;5.80;2.70;;;19.00;99.90;;;;;;5060979;28;20290;-76
2023/08/31 11:59:46;;;;;;;3.65;2.25;;;18.90;99.90;;;;;;5055053;28;20670;-76
2023/08/31 12:02:12;;;;;;;5.15;2.47;;;18.60;99.90;;;;;;5059229;28;20235;-81
2023/08/31 12:04:44;;;;;;;3.67;2.35;;;18.70;99.90;;;;;;5067147;28;20953;-75
2023/08/31 12:07:10;;;;;;;4.47;2.10;;;18.80;99.90;;;;;;5065092;28;20201;-77
2023/08/31 12:09:35;;;;;;;4.10;2.10;;;19.20;99.90;;;;;;5064213;28;20175;-77
2023/08/31 12:12:01;;;;;;;4.28;2.00;;;19.50;99.90;;;;;;5062528;28;20693;-78
2023/08/31 12:14:28;;;;;;;6.38;2.08;;;19.50;99.90;;;;;;5062808;28;20231;-78
2023/08/31 12:17:05;;;;;;;5.70;2.53;;;19.90;99.90;;;;;;5069414;28;20249;-78
2023/08/31 12:19:32;;;;;;;5.22;2.17;;;20.00;99.90;;;;;;5067099;28;20214;-77
2023/08/31 12:21:57;;;;;;;4.63;2.33;;;20.20;99.90;;;;;;5071280;28;20708;-78
2023/08/31 12:24:24;;;;;;;2.40;2.20;;;20.10;99.90;;;;;;5064418;28;20211;-77
2023/08/31 12:26:50;;;;;;;7.03;2.63;;;20.10;99.90;;;;;;5060618;28;20253;-76
2023/08/31 12:29:16;;;;;;;4.18;2.28;;;20.40;99.90;;;;;;5063359;28;20206;-76
2023/08/31 12:31:43;;;;;;;3.65;2.28;;;20.50;99.90;;;;;;5059774;28;20207;-77
2023/08/31 12:34:09;;;;;;;4.32;2.42;;;20.50;99.90;;;;;;5061870;28;20180;-77
2023/08/31 12:36:38;;;;;;;4.63;2.55;;;20.60;99.90;;;;;;5068458;28;20308;-78
2023/08/31 12:39:07;;;;;;;3.97;2.60;;;20.70;99.90;;;;;;5048015;28;20347;-75
2023/08/31 12:41:33;;;;;;;5.00;2.25;;;20.70;99.90;;;;;;5058840;28;20229;-76
2023/08/31 12:43:59;;;;;;;3.53;2.10;;;20.50;99.90;;;;;;5058085;28;20819;-75
2023/08/31 12:46:26;;;;;;;4.60;2.75;;;20.60;99.90;;;;;;5062530;28;20318;-77
2023/08/31 12:48:52;;;;;;;4.20;2.38;;;20.70;99.90;;;;;;5062964;28;20215;-81